Aviation Digital Data Service (ADDS)

Output produced by METARs form (2344 UTC 26 May 2018)
found at http://aviationweather.gov/adds/metars/
 
KBWI 262341Z 2700/2806 VRB03KT P6SM VCSH BKN100 
     FM270600 20004KT P6SM OVC025 
     FM271000 22004KT P6SM OVC008 
     FM271600 21004KT P6SM OVC020 
     FM271800 15004KT P6SM -SHRA VCTS OVC025CB 
     FM272300 11006KT P6SM -SHRA VCTS BKN008 OVC015CB 
     FM280200 10006KT P6SM OVC010